Terminal Aerodrome Forecast
Issued by NWS

Home | Current Version | Previous Version | Text Only | Print | Product List | Glossary On
Versions: 1 2 3 4 5 6 7 8 9 10 11 12 13 14 15 16 17 18 19 20 21 22 23 24 25 26 27 28 29 30 31 32 33 34 35
000
FTUS43 KGLD 271523 AAA
TAFMCK
TAF AMD
KMCK 271523Z 2715/2812 15008KT P6SM SCT050 BKN100
     FM271800 15010KT P6SM VCTS OVC050CB
     FM280500 12005KT 6SM TSRA BR OVC050CB
     FM281100 24005KT P6SM VCTS BKN060CB OVC200=

USA.gov is the U.S. government's official web portal to all federal, state and local government web resources and services.